SCCY

Details ICAO SCCY (GXQ)
Name TENIENTE VIDAL
Region Chile
Timezone America/Santiago (UTC-3.0)
Plans Departing 8
Arriving 6
Stats Elevation 1,020 ft / 311 m (AMSL)
Location -45.594200° -72.106133°
Runways 1
Magnetic Variation 10.042° E
Sunrise 2017-12-18 08:55:48 UTC / 2017-12-18 05:55:48 Local
Sunset 2017-12-19 00:37:10 UTC / 2017-12-18 21:37:10 Local
Advertisement - Login to hide

Runways

ID Width Length Bearing (true) Bearing (mag) Surface Threshold Offset Overrun Length
03 98 ft / 30 m 5,041 ft / 1,536 m 45.47° 35.43° Asphalt 0 ft / 0 m 115 ft / 35 m
21 98 ft / 30 m 5,041 ft / 1,536 m 225.46° 215.42° Asphalt 0 ft / 0 m 100 ft / 30 m

Map

Weather


0- 5 10 15 20 25 30 35+ Temperature / ° C

Clouds and Precipitation
Forecast for 2017-12-18 12:00 UTC. Updated 2 hours ago

Ground ~20,000 ft ~40,000 ft Winds

METAR

SCCY 181100Z AUTO 07004KT 030V090 9999 -RA OVC046 09/06 Q1015

TAF

Not found

Frequencies

Tower 126.70 MHz AFIS
Warning: Do not use this data for real-world aviation or navigation. No guarantee of current accuracy is given.